createdAt,value
2023-05-05T00:00:37.832Z,1.75
2023-05-05T00:03:41.900Z,1.27
2023-05-05T00:06:44.833Z,0.80
2023-05-05T00:09:47.602Z,1.67
2023-05-05T00:12:50.189Z,1.30
2023-05-05T00:15:56.847Z,1.48
2023-05-05T00:18:59.803Z,1.38
2023-05-05T00:22:02.824Z,0.85
2023-05-05T00:25:06.120Z,1.00
2023-05-05T00:28:09.303Z,1.33
2023-05-05T00:31:12.605Z,0.70
2023-05-05T00:34:15.924Z,0.60
2023-05-05T00:37:18.340Z,1.05
2023-05-05T00:40:21.557Z,1.50
2023-05-05T00:43:24.197Z,1.40
2023-05-05T00:46:29.570Z,0.95
2023-05-05T00:49:33.653Z,1.00
2023-05-05T00:52:39.843Z,0.90
2023-05-05T00:55:42.842Z,1.60
2023-05-05T00:58:45.960Z,1.13
2023-05-05T01:01:49.056Z,1.13
2023-05-05T01:04:51.970Z,1.10
2023-05-05T01:08:16.292Z,1.17
2023-05-05T01:11:46.292Z,1.35
2023-05-05T01:15:06.126Z,1.23
2023-05-05T01:18:38.966Z,0.57
2023-05-05T01:21:46.755Z,1.77
2023-05-05T01:25:38.741Z,1.70
2023-05-05T01:29:03.442Z,1.52
2023-05-05T01:32:15.718Z,1.40
2023-05-05T01:35:29.379Z,1.45
2023-05-05T01:38:40.769Z,1.20
2023-05-05T01:41:49.062Z,1.08
2023-05-05T01:44:53.556Z,1.67
2023-05-05T01:47:58.042Z,1.63
2023-05-05T01:51:03.246Z,2.20
2023-05-05T01:54:08.420Z,0.90
2023-05-05T01:57:13.293Z,1.20
2023-05-05T02:00:18.023Z,1.83
2023-05-05T02:03:22.908Z,1.05
2023-05-05T02:06:28.828Z,1.42
2023-05-05T02:09:33.220Z,1.03
2023-05-05T02:12:37.372Z,1.60
2023-05-05T02:15:42.045Z,1.52
2023-05-05T02:18:47.454Z,1.73
2023-05-05T02:21:51.284Z,1.27
2023-05-05T02:24:54.333Z,1.63
2023-05-05T02:27:59.072Z,1.50
2023-05-05T02:31:05.943Z,2.17
2023-05-05T02:34:09.985Z,1.33
2023-05-05T02:37:19.047Z,1.35
2023-05-05T02:40:28.649Z,1.60
2023-05-05T02:43:33.388Z,1.38
2023-05-05T02:46:38.040Z,1.65
2023-05-05T02:49:40.857Z,1.80
2023-05-05T02:52:45.289Z,2.05
2023-05-05T02:55:55.057Z,1.20
2023-05-05T02:59:31.940Z,1.40
2023-05-05T03:02:44.980Z,0.73
2023-05-05T03:06:21.622Z,1.88
2023-05-05T03:09:33.908Z,1.88
2023-05-05T03:12:40.601Z,1.60
2023-05-05T03:15:57.942Z,1.67
2023-05-05T03:19:03.680Z,1.02
2023-05-05T03:22:07.363Z,1.30
2023-05-05T03:25:10.979Z,1.60
2023-05-05T03:28:14.663Z,1.80
2023-05-05T03:31:18.638Z,1.15
2023-05-05T03:34:25.759Z,0.93
2023-05-05T03:37:28.815Z,1.55
2023-05-05T03:40:43.582Z,1.58
2023-05-05T03:43:49.217Z,0.73
2023-05-05T03:46:51.821Z,1.98
2023-05-05T03:49:55.303Z,1.25
2023-05-05T03:52:58.263Z,0.90
2023-05-05T03:56:01.549Z,1.40
2023-05-05T03:59:04.129Z,1.40
2023-05-05T04:02:07.306Z,0.90
2023-05-05T04:05:09.785Z,1.50
2023-05-05T04:08:12.630Z,1.15
2023-05-05T04:11:16.124Z,1.40
2023-05-05T04:14:19.229Z,1.10
2023-05-05T04:17:21.799Z,1.55
2023-05-05T04:20:25.586Z,0.98
2023-05-05T04:23:28.166Z,1.53
2023-05-05T04:26:31.098Z,0.90
2023-05-05T04:29:33.562Z,1.27
2023-05-05T04:32:36.573Z,1.60
2023-05-05T04:35:40.658Z,1.60
2023-05-05T04:38:43.468Z,2.20
2023-05-05T04:41:45.936Z,1.73
2023-05-05T04:44:48.758Z,1.63
2023-05-05T04:47:52.137Z,1.70
2023-05-05T04:50:55.014Z,1.65
2023-05-05T04:53:58.245Z,0.70
2023-05-05T04:57:01.104Z,1.67
2023-05-05T05:00:05.482Z,0.95
2023-05-05T05:03:08.611Z,1.23
2023-05-05T05:06:11.181Z,1.02
2023-05-05T05:09:13.839Z,1.25
2023-05-05T05:12:16.768Z,1.35
2023-05-05T05:15:19.716Z,1.00
2023-05-05T05:18:22.580Z,1.17
2023-05-05T05:21:26.552Z,1.38
2023-05-05T05:24:30.233Z,1.27
2023-05-05T05:27:33.051Z,1.52
2023-05-05T05:30:35.844Z,1.90
2023-05-05T05:33:41.146Z,2.05
2023-05-05T05:36:43.663Z,1.40
2023-05-05T05:39:52.783Z,1.40
2023-05-05T05:42:57.373Z,1.45
2023-05-05T05:46:01.721Z,1.57
2023-05-05T05:49:04.955Z,1.90
2023-05-05T05:52:08.015Z,1.75
2023-05-05T05:55:10.788Z,2.23
2023-05-05T05:58:16.622Z,1.23
2023-05-05T06:01:19.549Z,1.40
2023-05-05T06:04:22.651Z,1.60
2023-05-05T06:07:25.372Z,1.98
2023-05-05T06:10:28.979Z,1.52
2023-05-05T06:13:37.724Z,1.77
2023-05-05T06:16:41.648Z,1.47
2023-05-05T06:19:48.135Z,1.13
2023-05-05T06:22:51.091Z,1.70
2023-05-05T06:25:55.374Z,1.90
2023-05-05T06:28:58.366Z,1.33
2023-05-05T06:32:01.482Z,1.17
2023-05-05T06:35:04.322Z,1.55
2023-05-05T06:38:07.042Z,1.50
2023-05-05T06:41:09.626Z,1.60
2023-05-05T06:44:12.039Z,1.33
2023-05-05T06:47:14.681Z,1.70
2023-05-05T06:50:17.203Z,1.77
2023-05-05T06:53:20.177Z,1.33
2023-05-05T06:56:23.950Z,1.07
2023-05-05T06:59:27.077Z,1.45
2023-05-05T07:02:29.718Z,1.92
2023-05-05T07:05:32.881Z,1.85
2023-05-05T07:08:35.479Z,1.50
2023-05-05T07:11:38.519Z,1.50
2023-05-05T07:14:41.092Z,1.48
2023-05-05T07:17:43.937Z,1.90
2023-05-05T07:20:46.780Z,1.83
2023-05-05T07:23:49.416Z,1.98
2023-05-05T07:26:52.129Z,1.80
2023-05-05T07:29:54.736Z,1.52
2023-05-05T07:32:57.331Z,1.45
2023-05-05T07:36:00.116Z,1.60
2023-05-05T07:39:02.665Z,1.77
2023-05-05T07:42:06.928Z,1.90
2023-05-05T07:45:09.724Z,1.88
2023-05-05T07:48:12.466Z,1.50
2023-05-05T07:51:14.861Z,1.83
2023-05-05T07:54:17.939Z,1.77
2023-05-05T07:57:21.125Z,2.00
2023-05-05T08:00:23.832Z,1.95
2023-05-05T08:03:26.622Z,1.88
2023-05-05T08:06:31.702Z,2.35
2023-05-05T08:09:35.290Z,1.83
2023-05-05T08:12:38.085Z,2.00
2023-05-05T08:15:41.052Z,2.25
2023-05-05T08:18:43.550Z,2.23
2023-05-05T08:21:46.359Z,2.08
2023-05-05T08:24:49.182Z,1.60
2023-05-05T08:27:51.727Z,2.00
2023-05-05T08:30:54.449Z,1.70
2023-05-05T08:33:57.214Z,2.28
2023-05-05T08:36:59.709Z,2.63
2023-05-05T08:40:02.420Z,2.13
2023-05-05T08:43:05.692Z,2.17
2023-05-05T08:49:17.808Z,1.87
2023-05-05T08:52:23.893Z,2.10
2023-05-05T08:55:33.507Z,2.13
2023-05-05T08:58:37.674Z,1.67
2023-05-05T09:01:41.973Z,1.98
2023-05-05T09:04:44.927Z,1.90
2023-05-05T09:07:47.924Z,1.83
2023-05-05T09:10:51.648Z,2.28
2023-05-05T09:13:55.922Z,3.08
2023-05-05T09:16:58.555Z,1.90
2023-05-05T09:20:14.864Z,1.80
2023-05-05T09:23:21.141Z,1.35
2023-05-05T09:26:24.090Z,1.90
2023-05-05T09:29:26.862Z,1.97
2023-05-05T09:32:30.655Z,1.73
2023-05-05T09:35:51.503Z,1.73
2023-05-05T09:39:04.924Z,1.30
2023-05-05T09:42:18.049Z,1.83
2023-05-05T09:45:20.887Z,1.55
2023-05-05T09:48:31.806Z,1.88
2023-05-05T09:51:34.766Z,1.97
2023-05-05T09:54:37.288Z,1.83
2023-05-05T09:57:40.038Z,1.85
2023-05-05T10:00:42.499Z,1.53
2023-05-05T10:03:54.257Z,1.92
2023-05-05T10:06:57.986Z,1.92
2023-05-05T10:10:00.919Z,1.67
2023-05-05T10:13:03.475Z,1.77
2023-05-05T10:16:09.444Z,1.83
2023-05-05T10:19:14.703Z,1.92
2023-05-05T10:22:18.502Z,1.80
2023-05-05T10:25:30.069Z,2.83
2023-05-05T10:28:53.551Z,2.75
2023-05-05T10:32:14.088Z,1.80
2023-05-05T10:35:28.525Z,1.50
2023-05-05T10:38:52.967Z,1.90
2023-05-05T10:41:55.886Z,2.20
2023-05-05T10:45:01.114Z,1.63
2023-05-05T10:48:09.010Z,1.85
2023-05-05T10:51:35.314Z,1.77
2023-05-05T10:55:10.071Z,1.63
2023-05-05T10:58:50.981Z,1.63
2023-05-05T11:01:54.323Z,1.90
2023-05-05T11:05:06.162Z,1.70
2023-05-05T11:08:27.232Z,1.70
2023-05-05T11:12:02.868Z,1.77
2023-05-05T11:15:24.312Z,1.90
2023-05-05T11:18:31.301Z,1.50
2023-05-05T11:22:01.120Z,1.60
2023-05-05T11:25:36.366Z,1.92
2023-05-05T11:28:58.972Z,1.75
2023-05-05T11:32:12.324Z,1.60
2023-05-05T11:35:15.586Z,1.38
2023-05-05T11:38:22.059Z,1.63
2023-05-05T11:41:52.430Z,1.73
2023-05-05T11:44:55.459Z,1.70
2023-05-05T11:48:29.380Z,2.05
2023-05-05T11:51:32.363Z,2.25
2023-05-05T11:54:36.742Z,1.73
2023-05-05T11:57:40.209Z,2.17
2023-05-05T12:00:42.724Z,2.00
2023-05-05T12:03:46.086Z,1.47
2023-05-05T12:06:51.483Z,1.92
2023-05-05T12:09:55.099Z,1.83
2023-05-05T12:12:58.185Z,1.55
2023-05-05T12:16:11.324Z,1.77
2023-05-05T12:19:14.447Z,2.00
2023-05-05T12:22:25.619Z,1.60
2023-05-05T12:25:36.347Z,1.60
2023-05-05T12:28:48.643Z,2.10
2023-05-05T12:31:51.740Z,1.77
2023-05-05T12:34:57.546Z,1.90
2023-05-05T12:38:00.316Z,1.73
2023-05-05T12:41:03.075Z,1.83
2023-05-05T12:44:06.711Z,1.63
2023-05-05T12:47:09.723Z,1.85
2023-05-05T12:50:12.455Z,1.70
2023-05-05T12:53:25.742Z,1.48
2023-05-05T12:56:44.569Z,1.48
2023-05-05T12:59:47.060Z,1.70
2023-05-05T13:02:50.024Z,1.73
2023-05-05T13:05:52.738Z,1.63
2023-05-05T13:08:56.758Z,1.55
2023-05-05T13:11:59.572Z,1.70
2023-05-05T13:15:02.140Z,1.60
2023-05-05T13:18:04.891Z,1.83
2023-05-05T13:21:10.248Z,1.73
2023-05-05T13:24:25.993Z,1.58
2023-05-05T13:27:34.555Z,1.50
2023-05-05T13:30:37.145Z,1.90
2023-05-05T13:33:40.079Z,1.80
2023-05-05T13:36:42.774Z,1.60
2023-05-05T13:39:45.376Z,1.58
2023-05-05T13:42:48.162Z,1.20
2023-05-05T13:45:50.969Z,1.92
2023-05-05T13:48:56.720Z,1.63
2023-05-05T13:51:59.538Z,1.45
2023-05-05T13:55:02.060Z,1.48
2023-05-05T13:58:04.794Z,1.70
2023-05-05T14:01:07.936Z,1.30
2023-05-05T14:04:10.592Z,1.90
2023-05-05T14:07:13.149Z,1.40
2023-05-05T14:10:16.331Z,1.40
2023-05-05T14:13:19.241Z,1.30
2023-05-05T14:16:22.002Z,1.30
2023-05-05T14:19:24.973Z,1.42
2023-05-05T14:22:27.652Z,1.95
2023-05-05T14:25:30.835Z,1.92
2023-05-05T14:28:33.496Z,1.60
2023-05-05T14:31:37.032Z,1.80
2023-05-05T14:34:39.796Z,1.87
2023-05-05T14:37:42.434Z,1.70
2023-05-05T14:40:45.059Z,1.50
2023-05-05T14:43:47.992Z,2.00
2023-05-05T14:46:51.287Z,1.67
2023-05-05T14:49:53.981Z,2.30
2023-05-05T14:52:56.817Z,2.55
2023-05-05T14:56:01.064Z,2.03
2023-05-05T14:59:03.621Z,2.15
2023-05-05T15:02:06.813Z,2.20
2023-05-05T15:05:10.392Z,2.60
2023-05-05T15:08:14.789Z,2.10
2023-05-05T15:11:17.476Z,2.08
2023-05-05T15:14:20.342Z,1.97
2023-05-05T15:17:23.145Z,1.73
2023-05-05T15:20:25.930Z,2.22
2023-05-05T15:23:28.565Z,1.90
2023-05-05T15:26:31.508Z,1.45
2023-05-05T15:29:34.241Z,1.90
2023-05-05T15:32:37.296Z,1.88
2023-05-05T15:35:40.121Z,1.67
2023-05-05T15:38:43.626Z,1.70
2023-05-05T15:41:46.316Z,1.70
2023-05-05T15:44:49.343Z,1.30
2023-05-05T15:47:52.903Z,1.48
2023-05-05T15:50:55.648Z,1.52
2023-05-05T15:53:58.089Z,2.35
2023-05-05T15:57:00.816Z,1.70
2023-05-05T16:00:08.906Z,4.20
2023-05-05T16:03:38.963Z,4.22
2023-05-05T16:06:44.401Z,1.97
2023-05-05T16:09:46.943Z,1.20
2023-05-05T16:12:49.660Z,1.65
2023-05-05T16:15:52.353Z,1.60
2023-05-05T16:18:54.977Z,1.48
2023-05-05T16:21:58.049Z,1.70
2023-05-05T16:25:00.578Z,1.70
2023-05-05T16:28:03.490Z,1.45
2023-05-05T16:31:05.981Z,1.60
2023-05-05T16:34:08.758Z,1.30
2023-05-05T16:37:12.731Z,1.13
2023-05-05T16:40:15.730Z,1.50
2023-05-05T16:43:19.620Z,1.10
2023-05-05T16:46:22.301Z,1.40
2023-05-05T16:49:25.112Z,1.60
2023-05-05T16:52:28.061Z,1.70
2023-05-05T16:55:30.503Z,1.25
2023-05-05T16:58:33.222Z,1.75
2023-05-05T17:01:35.636Z,1.10
2023-05-05T17:04:38.830Z,1.30
2023-05-05T17:07:41.506Z,1.60
2023-05-05T17:10:45.874Z,1.67
2023-05-05T17:13:48.530Z,1.23
2023-05-05T17:16:51.407Z,1.27
2023-05-05T17:19:53.992Z,1.13
2023-05-05T17:22:56.654Z,1.30
2023-05-05T17:25:59.473Z,1.38
2023-05-05T17:29:02.873Z,1.00
2023-05-05T17:32:06.178Z,1.40
2023-05-05T17:35:09.855Z,1.50
2023-05-05T17:38:13.175Z,1.50
2023-05-05T17:41:16.042Z,1.27
2023-05-05T17:44:18.796Z,1.27
2023-05-05T17:47:22.634Z,1.60
2023-05-05T17:50:25.451Z,1.70
2023-05-05T17:53:28.233Z,1.27
2023-05-05T17:56:30.657Z,1.52
2023-05-05T17:59:33.286Z,1.33
2023-05-05T18:02:37.172Z,2.10
2023-05-05T18:05:40.259Z,1.48
2023-05-05T18:08:43.469Z,1.30
2023-05-05T18:11:46.086Z,1.20
2023-05-05T18:14:48.713Z,1.55
2023-05-05T18:17:51.298Z,1.63
2023-05-05T18:20:54.125Z,1.77
2023-05-05T18:24:01.907Z,1.40
2023-05-05T18:27:10.402Z,1.67
2023-05-05T18:30:13.674Z,1.85
2023-05-05T18:33:16.151Z,1.77
2023-05-05T18:36:18.868Z,3.25
2023-05-05T18:39:21.688Z,3.97
2023-05-05T18:42:24.268Z,6.32
2023-05-05T18:45:26.963Z,5.53
2023-05-05T18:48:30.912Z,2.27
2023-05-05T18:51:33.554Z,1.90
2023-05-05T18:54:37.798Z,3.10
2023-05-05T18:57:40.558Z,2.55
2023-05-05T19:00:43.548Z,1.52
2023-05-05T19:03:48.071Z,2.20
2023-05-05T19:06:52.537Z,2.35
2023-05-05T19:09:55.516Z,1.90
2023-05-05T19:12:59.231Z,1.58
2023-05-05T19:16:02.128Z,1.90
2023-05-05T19:19:04.962Z,1.60
2023-05-05T19:22:07.752Z,2.58
2023-05-05T19:25:11.167Z,2.35
2023-05-05T19:28:13.909Z,1.67
2023-05-05T19:31:16.909Z,1.73
2023-05-05T19:34:19.781Z,1.83
2023-05-05T19:37:23.090Z,2.30
2023-05-05T19:40:26.182Z,2.23
2023-05-05T19:43:28.910Z,2.25
2023-05-05T19:46:31.954Z,2.63
2023-05-05T19:49:34.938Z,2.40
2023-05-05T19:52:38.485Z,2.58
2023-05-05T19:55:41.417Z,2.20
2023-05-05T19:59:01.444Z,2.20
2023-05-05T20:02:04.406Z,2.47
2023-05-05T20:05:07.166Z,2.75
2023-05-05T20:08:09.918Z,3.03
2023-05-05T20:11:14.464Z,2.10
2023-05-05T20:14:17.179Z,2.88
2023-05-05T20:17:21.463Z,3.53
2023-05-05T20:20:24.187Z,2.67
2023-05-05T20:23:27.227Z,2.70
2023-05-05T20:26:30.911Z,2.50
2023-05-05T20:29:33.483Z,3.55
2023-05-05T20:32:36.842Z,3.90
2023-05-05T20:35:39.380Z,4.32
2023-05-05T20:38:43.337Z,3.80
2023-05-05T20:41:46.918Z,3.10
2023-05-05T20:44:49.761Z,4.03
2023-05-05T20:47:52.461Z,3.92
2023-05-05T20:50:55.710Z,3.83
2023-05-05T20:54:00.426Z,2.58
2023-05-05T20:57:03.297Z,3.35
2023-05-05T21:00:06.655Z,2.85
2023-05-05T21:03:09.817Z,2.67
2023-05-05T21:06:12.440Z,2.58
2023-05-05T21:09:15.261Z,2.42
2023-05-05T21:12:17.779Z,2.50
2023-05-05T21:15:20.516Z,3.42
2023-05-05T21:18:25.780Z,2.78
2023-05-05T21:21:28.364Z,2.77
2023-05-05T21:24:31.158Z,3.08
2023-05-05T21:27:33.821Z,3.13
2023-05-05T21:30:36.325Z,3.20
2023-05-05T21:33:39.518Z,5.03
2023-05-05T21:36:41.870Z,4.18
2023-05-05T21:39:44.960Z,3.92
2023-05-05T21:42:47.677Z,2.77
2023-05-05T21:46:01.995Z,3.30
2023-05-05T21:49:13.778Z,2.65
2023-05-05T21:52:17.327Z,2.70
2023-05-05T21:55:19.932Z,2.70
2023-05-05T21:58:25.317Z,2.60
2023-05-05T22:01:28.055Z,2.65
2023-05-05T22:04:31.103Z,3.00
2023-05-05T22:07:33.560Z,3.30
2023-05-05T22:10:36.296Z,2.58
2023-05-05T22:13:39.316Z,2.63
2023-05-05T22:16:41.860Z,2.45
2023-05-05T22:19:44.580Z,2.17
2023-05-05T22:22:47.729Z,1.53
2023-05-05T22:25:50.479Z,2.72
2023-05-05T22:28:53.209Z,1.90
2023-05-05T22:31:55.838Z,2.28
2023-05-05T22:34:59.196Z,2.17
2023-05-05T22:38:01.764Z,3.22
2023-05-05T22:41:06.759Z,3.03
2023-05-05T22:44:09.463Z,2.70
2023-05-05T22:47:13.513Z,3.05
2023-05-05T22:50:16.166Z,2.45
2023-05-05T22:53:18.964Z,2.40
2023-05-05T22:56:21.739Z,2.45
2023-05-05T22:59:25.416Z,2.53
2023-05-05T23:02:28.396Z,2.80
2023-05-05T23:05:31.522Z,3.33
2023-05-05T23:08:33.957Z,3.38
2023-05-05T23:11:37.019Z,3.85
2023-05-05T23:14:39.940Z,3.20
2023-05-05T23:17:42.793Z,3.97
2023-05-05T23:20:45.511Z,3.28
2023-05-05T23:23:48.775Z,3.23
2023-05-05T23:26:52.074Z,3.72
2023-05-05T23:29:54.775Z,3.70
2023-05-05T23:32:58.054Z,3.80
2023-05-05T23:36:01.213Z,3.53
2023-05-05T23:39:03.804Z,3.60
2023-05-05T23:42:07.088Z,3.70
2023-05-05T23:45:10.456Z,3.80
2023-05-05T23:48:13.602Z,3.65
2023-05-05T23:51:16.566Z,2.60
2023-05-05T23:54:19.381Z,3.37
2023-05-05T23:57:22.288Z,3.08
